sensor_id;sensor_type;location;lat;lon;timestamp;temperature;humidity
48988;DHT22;34799;51.440;-2.534;2022-12-01T00:01:17;5.20;99.90
48988;DHT22;34799;51.440;-2.534;2022-12-01T00:03:44;5.00;99.90
48988;DHT22;34799;51.440;-2.534;2022-12-01T00:06:15;6.40;99.90
48988;DHT22;34799;51.440;-2.534;2022-12-01T00:08:43;5.00;99.90
48988;DHT22;34799;51.440;-2.534;2022-12-01T00:11:29;4.90;99.90
48988;DHT22;34799;51.440;-2.534;2022-12-01T00:13:57;4.80;99.90
48988;DHT22;34799;51.440;-2.534;2022-12-01T00:16:24;4.80;99.90
48988;DHT22;34799;51.440;-2.534;2022-12-01T00:18:52;4.60;99.90
48988;DHT22;34799;51.440;-2.534;2022-12-01T00:21:21;4.70;99.90
48988;DHT22;34799;51.440;-2.534;2022-12-01T00:23:51;4.80;99.90
48988;DHT22;34799;51.440;-2.534;2022-12-01T00:26:19;4.80;99.90
48988;DHT22;34799;51.440;-2.534;2022-12-01T00:28:51;4.80;99.90
48988;DHT22;34799;51.440;-2.534;2022-12-01T00:31:19;4.80;99.90
48988;DHT22;34799;51.440;-2.534;2022-12-01T00:33:46;4.80;99.90
48988;DHT22;34799;51.440;-2.534;2022-12-01T00:36:13;4.90;99.90
48988;DHT22;34799;51.440;-2.534;2022-12-01T00:38:40;5.00;99.90
48988;DHT22;34799;51.440;-2.534;2022-12-01T00:41:08;5.00;99.90
48988;DHT22;34799;51.440;-2.534;2022-12-01T00:43:35;5.10;99.90
48988;DHT22;34799;51.440;-2.534;2022-12-01T00:46:02;5.60;99.90
48988;DHT22;34799;51.440;-2.534;2022-12-01T00:48:29;5.20;99.90
48988;DHT22;34799;51.440;-2.534;2022-12-01T00:50:56;5.20;99.90
48988;DHT22;34799;51.440;-2.534;2022-12-01T00:53:25;5.30;99.90
48988;DHT22;34799;51.440;-2.534;2022-12-01T00:55:52;5.30;99.90
48988;DHT22;34799;51.440;-2.534;2022-12-01T00:58:20;5.30;99.90
48988;DHT22;34799;51.440;-2.534;2022-12-01T01:00:48;5.30;99.90
48988;DHT22;34799;51.440;-2.534;2022-12-01T01:03:15;5.30;99.90
48988;DHT22;34799;51.440;-2.534;2022-12-01T01:05:43;5.30;99.90
48988;DHT22;34799;51.440;-2.534;2022-12-01T01:08:12;5.30;99.90
48988;DHT22;34799;51.440;-2.534;2022-12-01T01:10:45;5.30;99.90
48988;DHT22;34799;51.440;-2.534;2022-12-01T01:13:13;5.30;99.90
48988;DHT22;34799;51.440;-2.534;2022-12-01T01:15:41;5.20;99.90
48988;DHT22;34799;51.440;-2.534;2022-12-01T01:18:10;5.30;99.90
48988;DHT22;34799;51.440;-2.534;2022-12-01T01:20:37;5.30;99.90
48988;DHT22;34799;51.440;-2.534;2022-12-01T01:23:04;5.30;99.90
48988;DHT22;34799;51.440;-2.534;2022-12-01T01:25:32;5.30;99.90
48988;DHT22;34799;51.440;-2.534;2022-12-01T01:27:59;5.10;99.90
48988;DHT22;34799;51.440;-2.534;2022-12-01T01:30:26;4.90;99.90
48988;DHT22;34799;51.440;-2.534;2022-12-01T01:32:55;4.70;99.90
48988;DHT22;34799;51.440;-2.534;2022-12-01T01:35:21;4.60;99.90
48988;DHT22;34799;51.440;-2.534;2022-12-01T01:37:48;4.50;99.90
48988;DHT22;34799;51.440;-2.534;2022-12-01T01:40:17;4.60;99.90
48988;DHT22;34799;51.440;-2.534;2022-12-01T01:42:44;4.50;99.90
48988;DHT22;34799;51.440;-2.534;2022-12-01T01:45:26;4.40;99.90
48988;DHT22;34799;51.440;-2.534;2022-12-01T01:47:57;4.40;99.90
48988;DHT22;34799;51.440;-2.534;2022-12-01T01:50:27;4.40;99.90
48988;DHT22;34799;51.440;-2.534;2022-12-01T01:53:03;4.40;99.90
48988;DHT22;34799;51.440;-2.534;2022-12-01T01:55:33;4.30;99.90
48988;DHT22;34799;51.440;-2.534;2022-12-01T01:58:07;4.20;99.90
48988;DHT22;34799;51.440;-2.534;2022-12-01T02:00:35;4.20;99.90
48988;DHT22;34799;51.440;-2.534;2022-12-01T02:03:03;4.30;99.90
48988;DHT22;34799;51.440;-2.534;2022-12-01T02:05:33;4.40;99.90
48988;DHT22;34799;51.440;-2.534;2022-12-01T02:08:01;4.50;99.90
48988;DHT22;34799;51.440;-2.534;2022-12-01T02:14:06;4.70;99.90
48988;DHT22;34799;51.440;-2.534;2022-12-01T02:16:43;4.80;99.90
48988;DHT22;34799;51.440;-2.534;2022-12-01T02:25:20;5.00;99.90
48988;DHT22;34799;51.440;-2.534;2022-12-01T02:30:49;5.20;99.90
48988;DHT22;34799;51.440;-2.534;2022-12-01T02:36:00;5.30;99.90
48988;DHT22;34799;51.440;-2.534;2022-12-01T02:38:32;5.30;99.90
48988;DHT22;34799;51.440;-2.534;2022-12-01T02:41:26;5.40;99.90
48988;DHT22;34799;51.440;-2.534;2022-12-01T02:47:10;5.40;99.90
48988;DHT22;34799;51.440;-2.534;2022-12-01T02:49:45;5.40;99.90
48988;DHT22;34799;51.440;-2.534;2022-12-01T02:52:14;5.40;99.90
48988;DHT22;34799;51.440;-2.534;2022-12-01T02:54:46;5.50;99.90
48988;DHT22;34799;51.440;-2.534;2022-12-01T02:57:16;5.50;99.90
48988;DHT22;34799;51.440;-2.534;2022-12-01T02:59:48;5.50;99.90
48988;DHT22;34799;51.440;-2.534;2022-12-01T03:02:39;5.50;99.90
48988;DHT22;34799;51.440;-2.534;2022-12-01T03:08:14;5.50;99.90
48988;DHT22;34799;51.440;-2.534;2022-12-01T03:10:51;5.60;99.90
48988;DHT22;34799;51.440;-2.534;2022-12-01T03:13:43;5.60;99.90
48988;DHT22;34799;51.440;-2.534;2022-12-01T03:18:58;5.60;99.90
48988;DHT22;34799;51.440;-2.534;2022-12-01T03:21:33;5.60;99.90
48988;DHT22;34799;51.440;-2.534;2022-12-01T03:24:15;5.60;99.90
48988;DHT22;34799;51.440;-2.534;2022-12-01T03:26:47;5.70;99.90
48988;DHT22;34799;51.440;-2.534;2022-12-01T03:29:20;5.70;99.90
48988;DHT22;34799;51.440;-2.534;2022-12-01T03:31:52;5.70;99.90
48988;DHT22;34799;51.440;-2.534;2022-12-01T03:37:03;5.60;99.90
48988;DHT22;34799;51.440;-2.534;2022-12-01T03:39:35;5.60;99.90
48988;DHT22;34799;51.440;-2.534;2022-12-01T03:42:17;5.60;99.90
48988;DHT22;34799;51.440;-2.534;2022-12-01T03:44:52;5.50;99.90
48988;DHT22;34799;51.440;-2.534;2022-12-01T03:47:23;5.40;99.90
48988;DHT22;34799;51.440;-2.534;2022-12-01T03:49:53;5.30;99.90
48988;DHT22;34799;51.440;-2.534;2022-12-01T03:55:16;5.30;99.90
48988;DHT22;34799;51.440;-2.534;2022-12-01T03:57:52;5.30;99.90
48988;DHT22;34799;51.440;-2.534;2022-12-01T04:00:21;5.40;99.90
48988;DHT22;34799;51.440;-2.534;2022-12-01T04:02:56;5.30;99.90
48988;DHT22;34799;51.440;-2.534;2022-12-01T04:05:24;5.20;99.90
48988;DHT22;34799;51.440;-2.534;2022-12-01T04:07:51;5.10;99.90
48988;DHT22;34799;51.440;-2.534;2022-12-01T04:10:19;5.10;99.90
48988;DHT22;34799;51.440;-2.534;2022-12-01T04:12:47;5.10;99.90
48988;DHT22;34799;51.440;-2.534;2022-12-01T04:15:14;5.10;99.90
48988;DHT22;34799;51.440;-2.534;2022-12-01T04:17:43;6.80;99.90
48988;DHT22;34799;51.440;-2.534;2022-12-01T04:20:14;5.20;99.90
48988;DHT22;34799;51.440;-2.534;2022-12-01T04:22:41;5.30;99.90
48988;DHT22;34799;51.440;-2.534;2022-12-01T04:25:08;5.30;99.90
48988;DHT22;34799;51.440;-2.534;2022-12-01T04:27:36;5.40;99.90
48988;DHT22;34799;51.440;-2.534;2022-12-01T04:30:06;5.40;99.90
48988;DHT22;34799;51.440;-2.534;2022-12-01T04:32:38;5.40;99.90
48988;DHT22;34799;51.440;-2.534;2022-12-01T04:35:08;5.40;99.90
48988;DHT22;34799;51.440;-2.534;2022-12-01T04:37:35;5.30;99.90
48988;DHT22;34799;51.440;-2.534;2022-12-01T04:40:03;5.30;99.90
48988;DHT22;34799;51.440;-2.534;2022-12-01T04:42:32;5.40;99.90
48988;DHT22;34799;51.440;-2.534;2022-12-01T04:44:59;5.40;99.90
48988;DHT22;34799;51.440;-2.534;2022-12-01T04:47:26;5.20;99.90
48988;DHT22;34799;51.440;-2.534;2022-12-01T04:49:54;5.30;99.90
48988;DHT22;34799;51.440;-2.534;2022-12-01T04:52:21;8.60;99.90
48988;DHT22;34799;51.440;-2.534;2022-12-01T04:54:47;5.20;99.90
48988;DHT22;34799;51.440;-2.534;2022-12-01T04:57:16;5.00;99.90
48988;DHT22;34799;51.440;-2.534;2022-12-01T04:59:43;5.10;99.90
48988;DHT22;34799;51.440;-2.534;2022-12-01T05:02:10;5.20;99.90
48988;DHT22;34799;51.440;-2.534;2022-12-01T05:04:37;5.20;99.90
48988;DHT22;34799;51.440;-2.534;2022-12-01T05:07:08;5.10;99.90
48988;DHT22;34799;51.440;-2.534;2022-12-01T05:09:36;5.10;99.90
48988;DHT22;34799;51.440;-2.534;2022-12-01T05:12:03;5.10;99.90
48988;DHT22;34799;51.440;-2.534;2022-12-01T05:14:30;5.20;99.90
48988;DHT22;34799;51.440;-2.534;2022-12-01T05:16:57;5.20;99.90
48988;DHT22;34799;51.440;-2.534;2022-12-01T05:19:26;8.50;99.90
48988;DHT22;34799;51.440;-2.534;2022-12-01T05:22:12;5.30;99.90
48988;DHT22;34799;51.440;-2.534;2022-12-01T05:24:39;5.30;99.90
48988;DHT22;34799;51.440;-2.534;2022-12-01T05:27:06;5.90;99.90
48988;DHT22;34799;51.440;-2.534;2022-12-01T05:29:33;5.60;99.90
48988;DHT22;34799;51.440;-2.534;2022-12-01T05:32:03;5.50;99.90
48988;DHT22;34799;51.440;-2.534;2022-12-01T05:34:30;5.60;99.90
48988;DHT22;34799;51.440;-2.534;2022-12-01T05:36:57;5.60;99.90
48988;DHT22;34799;51.440;-2.534;2022-12-01T05:39:24;5.60;99.90
48988;DHT22;34799;51.440;-2.534;2022-12-01T05:41:51;5.60;99.90
48988;DHT22;34799;51.440;-2.534;2022-12-01T05:44:20;5.70;99.90
48988;DHT22;34799;51.440;-2.534;2022-12-01T05:46:47;5.70;99.90
48988;DHT22;34799;51.440;-2.534;2022-12-01T05:49:14;5.70;99.90
48988;DHT22;34799;51.440;-2.534;2022-12-01T05:51:42;5.70;99.90
48988;DHT22;34799;51.440;-2.534;2022-12-01T05:54:09;5.70;99.90
48988;DHT22;34799;51.440;-2.534;2022-12-01T05:56:36;6.60;99.90
48988;DHT22;34799;51.440;-2.534;2022-12-01T05:59:04;5.70;99.90
48988;DHT22;34799;51.440;-2.534;2022-12-01T06:01:31;5.70;99.90
48988;DHT22;34799;51.440;-2.534;2022-12-01T06:03:58;5.60;99.90
48988;DHT22;34799;51.440;-2.534;2022-12-01T06:06:25;5.60;99.90
48988;DHT22;34799;51.440;-2.534;2022-12-01T06:08:52;5.60;99.90
48988;DHT22;34799;51.440;-2.534;2022-12-01T06:11:19;5.60;99.90
48988;DHT22;34799;51.440;-2.534;2022-12-01T06:13:48;5.60;99.90
48988;DHT22;34799;51.440;-2.534;2022-12-01T06:16:15;5.60;99.90
48988;DHT22;34799;51.440;-2.534;2022-12-01T06:18:42;5.60;99.90
48988;DHT22;34799;51.440;-2.534;2022-12-01T06:21:09;5.70;99.90
48988;DHT22;34799;51.440;-2.534;2022-12-01T06:23:36;5.60;99.90
48988;DHT22;34799;51.440;-2.534;2022-12-01T06:26:03;5.60;99.90
48988;DHT22;34799;51.440;-2.534;2022-12-01T06:28:32;5.60;99.90
48988;DHT22;34799;51.440;-2.534;2022-12-01T06:30:59;5.70;99.90
48988;DHT22;34799;51.440;-2.534;2022-12-01T06:33:29;5.70;99.90
48988;DHT22;34799;51.440;-2.534;2022-12-01T06:35:58;5.70;99.90
48988;DHT22;34799;51.440;-2.534;2022-12-01T06:38:28;5.70;99.90
48988;DHT22;34799;51.440;-2.534;2022-12-01T06:40:56;5.70;99.90
48988;DHT22;34799;51.440;-2.534;2022-12-01T06:43:23;5.60;99.90
48988;DHT22;34799;51.440;-2.534;2022-12-01T06:45:51;5.70;99.90
48988;DHT22;34799;51.440;-2.534;2022-12-01T06:48:19;5.70;99.90
48988;DHT22;34799;51.440;-2.534;2022-12-01T06:50:46;5.70;99.90
48988;DHT22;34799;51.440;-2.534;2022-12-01T06:53:14;5.70;99.90
48988;DHT22;34799;51.440;-2.534;2022-12-01T06:55:41;8.40;99.90
48988;DHT22;34799;51.440;-2.534;2022-12-01T06:58:08;5.80;99.90
48988;DHT22;34799;51.440;-2.534;2022-12-01T07:00:35;5.70;99.90
48988;DHT22;34799;51.440;-2.534;2022-12-01T07:03:02;6.30;99.90
48988;DHT22;34799;51.440;-2.534;2022-12-01T07:05:29;5.60;99.90
48988;DHT22;34799;51.440;-2.534;2022-12-01T07:07:56;5.60;99.90
48988;DHT22;34799;51.440;-2.534;2022-12-01T07:10:26;6.70;99.90
48988;DHT22;34799;51.440;-2.534;2022-12-01T07:12:56;5.60;99.90
48988;DHT22;34799;51.440;-2.534;2022-12-01T07:15:23;5.60;99.90
48988;DHT22;34799;51.440;-2.534;2022-12-01T07:17:50;5.60;99.90
48988;DHT22;34799;51.440;-2.534;2022-12-01T07:20:19;7.00;99.90
48988;DHT22;34799;51.440;-2.534;2022-12-01T07:22:46;5.60;99.90
48988;DHT22;34799;51.440;-2.534;2022-12-01T07:25:13;5.50;99.90
48988;DHT22;34799;51.440;-2.534;2022-12-01T07:27:40;5.50;99.90
48988;DHT22;34799;51.440;-2.534;2022-12-01T07:30:07;5.40;99.90
48988;DHT22;34799;51.440;-2.534;2022-12-01T07:32:34;5.30;99.90
48988;DHT22;34799;51.440;-2.534;2022-12-01T07:35:02;5.30;99.90
48988;DHT22;34799;51.440;-2.534;2022-12-01T07:37:29;5.30;99.90
48988;DHT22;34799;51.440;-2.534;2022-12-01T07:39:56;5.30;99.90
48988;DHT22;34799;51.440;-2.534;2022-12-01T07:42:23;5.30;99.90
48988;DHT22;34799;51.440;-2.534;2022-12-01T07:44:50;5.30;99.90
48988;DHT22;34799;51.440;-2.534;2022-12-01T07:47:17;5.30;99.90
48988;DHT22;34799;51.440;-2.534;2022-12-01T07:49:46;5.30;99.90
48988;DHT22;34799;51.440;-2.534;2022-12-01T07:52:14;5.30;99.90
48988;DHT22;34799;51.440;-2.534;2022-12-01T07:54:41;5.30;99.90
48988;DHT22;34799;51.440;-2.534;2022-12-01T07:57:08;5.30;99.90
48988;DHT22;34799;51.440;-2.534;2022-12-01T07:59:35;5.30;99.90
48988;DHT22;34799;51.440;-2.534;2022-12-01T08:02:02;5.30;99.90
48988;DHT22;34799;51.440;-2.534;2022-12-01T08:04:30;6.20;99.90
48988;DHT22;34799;51.440;-2.534;2022-12-01T08:06:57;5.30;99.90
48988;DHT22;34799;51.440;-2.534;2022-12-01T08:09:24;5.30;99.90
48988;DHT22;34799;51.440;-2.534;2022-12-01T08:11:51;5.30;99.90
48988;DHT22;34799;51.440;-2.534;2022-12-01T08:14:18;5.30;99.90
48988;DHT22;34799;51.440;-2.534;2022-12-01T08:16:48;5.40;99.90
48988;DHT22;34799;51.440;-2.534;2022-12-01T08:19:15;5.40;99.90
48988;DHT22;34799;51.440;-2.534;2022-12-01T08:21:42;5.40;99.90
48988;DHT22;34799;51.440;-2.534;2022-12-01T08:24:09;5.50;99.90
48988;DHT22;34799;51.440;-2.534;2022-12-01T08:26:36;5.50;99.90
48988;DHT22;34799;51.440;-2.534;2022-12-01T08:29:03;5.60;99.90
48988;DHT22;34799;51.440;-2.534;2022-12-01T08:31:32;5.50;99.90
48988;DHT22;34799;51.440;-2.534;2022-12-01T08:34:04;6.10;99.90
48988;DHT22;34799;51.440;-2.534;2022-12-01T08:36:32;5.50;99.90
48988;DHT22;34799;51.440;-2.534;2022-12-01T08:39:00;5.50;99.90
48988;DHT22;34799;51.440;-2.534;2022-12-01T08:41:27;5.40;99.90
48988;DHT22;34799;51.440;-2.534;2022-12-01T08:43:54;5.40;99.90
48988;DHT22;34799;51.440;-2.534;2022-12-01T08:46:25;5.40;99.90
48988;DHT22;34799;51.440;-2.534;2022-12-01T08:48:53;5.40;99.90
48988;DHT22;34799;51.440;-2.534;2022-12-01T08:51:25;5.40;99.90
48988;DHT22;34799;51.440;-2.534;2022-12-01T08:53:54;5.50;99.90
48988;DHT22;34799;51.440;-2.534;2022-12-01T08:58:52;5.50;99.90
48988;DHT22;34799;51.440;-2.534;2022-12-01T09:01:20;6.20;99.90
48988;DHT22;34799;51.440;-2.534;2022-12-01T09:03:47;5.50;99.90
48988;DHT22;34799;51.440;-2.534;2022-12-01T09:06:16;5.50;99.90
48988;DHT22;34799;51.440;-2.534;2022-12-01T09:08:45;5.50;99.90
48988;DHT22;34799;51.440;-2.534;2022-12-01T09:11:14;6.40;99.90
48988;DHT22;34799;51.440;-2.534;2022-12-01T09:13:43;5.50;99.90
48988;DHT22;34799;51.440;-2.534;2022-12-01T09:16:14;5.60;99.90
48988;DHT22;34799;51.440;-2.534;2022-12-01T09:18:44;5.50;99.90
48988;DHT22;34799;51.440;-2.534;2022-12-01T09:21:16;5.60;99.90
48988;DHT22;34799;51.440;-2.534;2022-12-01T09:23:45;5.60;99.90
48988;DHT22;34799;51.440;-2.534;2022-12-01T09:26:13;5.60;99.90
48988;DHT22;34799;51.440;-2.534;2022-12-01T09:28:46;5.70;99.90
48988;DHT22;34799;51.440;-2.534;2022-12-01T09:31:15;5.80;99.90
48988;DHT22;34799;51.440;-2.534;2022-12-01T09:33:44;5.90;99.90
48988;DHT22;34799;51.440;-2.534;2022-12-01T09:36:12;5.90;99.90
48988;DHT22;34799;51.440;-2.534;2022-12-01T09:38:39;5.90;99.90
48988;DHT22;34799;51.440;-2.534;2022-12-01T09:41:29;5.90;99.90
48988;DHT22;34799;51.440;-2.534;2022-12-01T09:49:21;6.60;99.90
48988;DHT22;34799;51.440;-2.534;2022-12-01T09:51:52;6.10;99.90
48988;DHT22;34799;51.440;-2.534;2022-12-01T09:54:20;6.20;99.90
48988;DHT22;34799;51.440;-2.534;2022-12-01T09:56:51;6.20;99.90
48988;DHT22;34799;51.440;-2.534;2022-12-01T09:59:23;6.10;99.90
48988;DHT22;34799;51.440;-2.534;2022-12-01T10:01:57;6.20;99.90
48988;DHT22;34799;51.440;-2.534;2022-12-01T10:04:30;6.10;99.90
48988;DHT22;34799;51.440;-2.534;2022-12-01T10:07:12;6.10;99.90
48988;DHT22;34799;51.440;-2.534;2022-12-01T10:09:57;6.10;99.90
48988;DHT22;34799;51.440;-2.534;2022-12-01T10:12:28;6.20;99.90
48988;DHT22;34799;51.440;-2.534;2022-12-01T10:17:57;6.30;99.90
48988;DHT22;34799;51.440;-2.534;2022-12-01T10:24:06;6.30;99.90
48988;DHT22;34799;51.440;-2.534;2022-12-01T10:27:07;6.40;99.90
48988;DHT22;34799;51.440;-2.534;2022-12-01T10:35:00;6.60;99.90
48988;DHT22;34799;51.440;-2.534;2022-12-01T10:37:28;6.70;99.90
48988;DHT22;34799;51.440;-2.534;2022-12-01T10:39:57;7.00;99.90
48988;DHT22;34799;51.440;-2.534;2022-12-01T10:42:36;6.80;99.90
48988;DHT22;34799;51.440;-2.534;2022-12-01T10:45:19;6.80;99.90
48988;DHT22;34799;51.440;-2.534;2022-12-01T10:50:54;6.90;99.90
48988;DHT22;34799;51.440;-2.534;2022-12-01T10:56:05;7.00;99.90
48988;DHT22;34799;51.440;-2.534;2022-12-01T10:58:51;7.10;99.90
48988;DHT22;34799;51.440;-2.534;2022-12-01T11:01:31;7.10;99.90
48988;DHT22;34799;51.440;-2.534;2022-12-01T11:04:05;7.20;99.90
48988;DHT22;34799;51.440;-2.534;2022-12-01T11:06:34;7.10;99.90
48988;DHT22;34799;51.440;-2.534;2022-12-01T11:09:06;7.10;99.90
48988;DHT22;34799;51.440;-2.534;2022-12-01T11:11:36;7.10;99.90
48988;DHT22;34799;51.440;-2.534;2022-12-01T11:14:40;7.90;99.90
48988;DHT22;34799;51.440;-2.534;2022-12-01T11:19:48;7.20;99.90
48988;DHT22;34799;51.440;-2.534;2022-12-01T11:22:30;7.30;99.90
48988;DHT22;34799;51.440;-2.534;2022-12-01T11:25:03;7.30;99.90
48988;DHT22;34799;51.440;-2.534;2022-12-01T11:27:44;7.40;99.90
48988;DHT22;34799;51.440;-2.534;2022-12-01T11:30:24;7.40;99.90
48988;DHT22;34799;51.440;-2.534;2022-12-01T11:33:05;7.50;99.90
48988;DHT22;34799;51.440;-2.534;2022-12-01T11:35:35;7.30;99.90
48988;DHT22;34799;51.440;-2.534;2022-12-01T11:38:05;7.70;99.90
48988;DHT22;34799;51.440;-2.534;2022-12-01T11:40:55;7.70;99.90
48988;DHT22;34799;51.440;-2.534;2022-12-01T11:43:35;7.70;99.90
48988;DHT22;34799;51.440;-2.534;2022-12-01T11:46:07;8.00;99.90
48988;DHT22;34799;51.440;-2.534;2022-12-01T11:48:35;7.60;99.90
48988;DHT22;34799;51.440;-2.534;2022-12-01T11:53:39;7.60;99.90
48988;DHT22;34799;51.440;-2.534;2022-12-01T11:58:52;7.90;99.90
48988;DHT22;34799;51.440;-2.534;2022-12-01T12:10:35;7.40;99.90
48988;DHT22;34799;51.440;-2.534;2022-12-01T12:16:17;7.40;99.90
48988;DHT22;34799;51.440;-2.534;2022-12-01T12:30:27;7.60;99.90
48988;DHT22;34799;51.440;-2.534;2022-12-01T12:52:19;7.50;99.90
48988;DHT22;34799;51.440;-2.534;2022-12-01T12:55:02;7.50;99.90
48988;DHT22;34799;51.440;-2.534;2022-12-01T12:57:37;9.30;99.90
48988;DHT22;34799;51.440;-2.534;2022-12-01T13:00:12;7.50;99.90
48988;DHT22;34799;51.440;-2.534;2022-12-01T13:02:58;7.60;99.90
48988;DHT22;34799;51.440;-2.534;2022-12-01T13:05:35;7.60;99.90
48988;DHT22;34799;51.440;-2.534;2022-12-01T13:08:21;7.50;99.90
48988;DHT22;34799;51.440;-2.534;2022-12-01T13:10:58;7.50;99.90
48988;DHT22;34799;51.440;-2.534;2022-12-01T13:13:38;7.50;99.90
48988;DHT22;34799;51.440;-2.534;2022-12-01T13:16:10;7.60;99.90
48988;DHT22;34799;51.440;-2.534;2022-12-01T13:18:49;7.50;99.90
48988;DHT22;34799;51.440;-2.534;2022-12-01T13:21:20;7.50;99.90
48988;DHT22;34799;51.440;-2.534;2022-12-01T13:23:50;7.60;99.90
48988;DHT22;34799;51.440;-2.534;2022-12-01T13:26:20;7.60;99.90
48988;DHT22;34799;51.440;-2.534;2022-12-01T13:28:55;7.60;99.90
48988;DHT22;34799;51.440;-2.534;2022-12-01T13:31:23;8.10;99.90
48988;DHT22;34799;51.440;-2.534;2022-12-01T13:34:34;7.70;99.90
48988;DHT22;34799;51.440;-2.534;2022-12-01T13:37:04;7.70;99.90
48988;DHT22;34799;51.440;-2.534;2022-12-01T13:39:33;7.70;99.90
48988;DHT22;34799;51.440;-2.534;2022-12-01T13:42:15;7.70;99.90
48988;DHT22;34799;51.440;-2.534;2022-12-01T13:44:51;7.70;99.90
48988;DHT22;34799;51.440;-2.534;2022-12-01T13:49:50;7.70;99.90
48988;DHT22;34799;51.440;-2.534;2022-12-01T14:00:31;7.80;99.90
48988;DHT22;34799;51.440;-2.534;2022-12-01T14:05:53;7.80;99.90
48988;DHT22;34799;51.440;-2.534;2022-12-01T14:08:25;7.80;99.90
48988;DHT22;34799;51.440;-2.534;2022-12-01T14:10:59;7.90;99.90
48988;DHT22;34799;51.440;-2.534;2022-12-01T14:13:28;7.90;99.90
48988;DHT22;34799;51.440;-2.534;2022-12-01T14:16:01;7.90;99.90
48988;DHT22;34799;51.440;-2.534;2022-12-01T14:18:36;7.90;99.90
48988;DHT22;34799;51.440;-2.534;2022-12-01T14:21:08;8.00;99.90
48988;DHT22;34799;51.440;-2.534;2022-12-01T14:23:39;7.90;99.90
48988;DHT22;34799;51.440;-2.534;2022-12-01T14:26:26;7.80;99.90
48988;DHT22;34799;51.440;-2.534;2022-12-01T14:34:01;7.80;99.90
48988;DHT22;34799;51.440;-2.534;2022-12-01T14:36:48;7.80;99.90
48988;DHT22;34799;51.440;-2.534;2022-12-01T14:39:57;7.70;99.90
48988;DHT22;34799;51.440;-2.534;2022-12-01T14:42:36;7.50;99.90
48988;DHT22;34799;51.440;-2.534;2022-12-01T14:48:39;7.50;99.90
48988;DHT22;34799;51.440;-2.534;2022-12-01T14:51:21;7.50;99.90
48988;DHT22;34799;51.440;-2.534;2022-12-01T14:53:54;7.60;99.90
48988;DHT22;34799;51.440;-2.534;2022-12-01T14:56:22;7.60;99.90
48988;DHT22;34799;51.440;-2.534;2022-12-01T15:01:21;7.60;99.90
48988;DHT22;34799;51.440;-2.534;2022-12-01T15:03:53;7.60;99.90
48988;DHT22;34799;51.440;-2.534;2022-12-01T15:06:24;7.60;99.90
48988;DHT22;34799;51.440;-2.534;2022-12-01T15:09:14;7.70;99.90
48988;DHT22;34799;51.440;-2.534;2022-12-01T15:12:04;7.70;99.90
48988;DHT22;34799;51.440;-2.534;2022-12-01T15:14:46;7.70;99.90
48988;DHT22;34799;51.440;-2.534;2022-12-01T15:17:46;7.70;99.90
48988;DHT22;34799;51.440;-2.534;2022-12-01T15:20:36;7.90;99.90
48988;DHT22;34799;51.440;-2.534;2022-12-01T15:23:11;7.70;99.90
48988;DHT22;34799;51.440;-2.534;2022-12-01T15:25:42;7.90;99.90
48988;DHT22;34799;51.440;-2.534;2022-12-01T15:30:40;7.70;99.90
48988;DHT22;34799;51.440;-2.534;2022-12-01T15:33:31;7.70;99.90
48988;DHT22;34799;51.440;-2.534;2022-12-01T15:36:02;7.80;99.90
48988;DHT22;34799;51.440;-2.534;2022-12-01T15:38:34;7.70;99.90
48988;DHT22;34799;51.440;-2.534;2022-12-01T15:41:03;7.70;99.90
48988;DHT22;34799;51.440;-2.534;2022-12-01T15:43:56;7.70;99.90
48988;DHT22;34799;51.440;-2.534;2022-12-01T15:46:30;7.70;99.90
48988;DHT22;34799;51.440;-2.534;2022-12-01T15:49:28;7.70;99.90
48988;DHT22;34799;51.440;-2.534;2022-12-01T15:52:08;7.60;99.90
48988;DHT22;34799;51.440;-2.534;2022-12-01T15:54:37;7.60;99.90
48988;DHT22;34799;51.440;-2.534;2022-12-01T15:57:05;7.50;99.90
48988;DHT22;34799;51.440;-2.534;2022-12-01T15:59:39;7.50;99.90
48988;DHT22;34799;51.440;-2.534;2022-12-01T16:02:28;7.80;99.90
48988;DHT22;34799;51.440;-2.534;2022-12-01T16:07:35;7.20;99.90
48988;DHT22;34799;51.440;-2.534;2022-12-01T16:10:25;7.10;99.90
48988;DHT22;34799;51.440;-2.534;2022-12-01T16:15:58;7.20;99.90
48988;DHT22;34799;51.440;-2.534;2022-12-01T16:18:32;7.20;99.90
48988;DHT22;34799;51.440;-2.534;2022-12-01T16:21:03;7.10;99.90
48988;DHT22;34799;51.440;-2.534;2022-12-01T16:23:32;7.00;99.90
48988;DHT22;34799;51.440;-2.534;2022-12-01T16:25:59;7.00;99.90
48988;DHT22;34799;51.440;-2.534;2022-12-01T16:28:32;7.00;99.90
48988;DHT22;34799;51.440;-2.534;2022-12-01T16:31:04;7.00;99.90
48988;DHT22;34799;51.440;-2.534;2022-12-01T16:33:36;7.10;99.90
48988;DHT22;34799;51.440;-2.534;2022-12-01T16:36:04;7.00;99.90
48988;DHT22;34799;51.440;-2.534;2022-12-01T16:38:32;7.00;99.90
48988;DHT22;34799;51.440;-2.534;2022-12-01T16:41:00;7.00;99.90
48988;DHT22;34799;51.440;-2.534;2022-12-01T16:43:29;8.20;99.90
48988;DHT22;34799;51.440;-2.534;2022-12-01T16:46:01;6.70;99.90
48988;DHT22;34799;51.440;-2.534;2022-12-01T16:48:30;6.60;99.90
48988;DHT22;34799;51.440;-2.534;2022-12-01T16:51:01;6.50;99.90
48988;DHT22;34799;51.440;-2.534;2022-12-01T16:53:28;6.50;99.90
48988;DHT22;34799;51.440;-2.534;2022-12-01T16:55:58;6.40;99.90
48988;DHT22;34799;51.440;-2.534;2022-12-01T16:58:26;6.40;99.90
48988;DHT22;34799;51.440;-2.534;2022-12-01T17:00:53;6.10;99.90
48988;DHT22;34799;51.440;-2.534;2022-12-01T17:03:26;6.40;99.90
48988;DHT22;34799;51.440;-2.534;2022-12-01T17:05:53;6.00;99.90
48988;DHT22;34799;51.440;-2.534;2022-12-01T17:08:21;5.90;99.90
48988;DHT22;34799;51.440;-2.534;2022-12-01T17:10:50;6.00;99.90
48988;DHT22;34799;51.440;-2.534;2022-12-01T17:13:18;6.00;99.90
48988;DHT22;34799;51.440;-2.534;2022-12-01T17:15:49;6.00;99.90
48988;DHT22;34799;51.440;-2.534;2022-12-01T17:18:19;6.00;99.90
48988;DHT22;34799;51.440;-2.534;2022-12-01T17:20:57;5.90;99.90
48988;DHT22;34799;51.440;-2.534;2022-12-01T17:23:25;6.50;99.90
48988;DHT22;34799;51.440;-2.534;2022-12-01T17:25:52;5.80;99.90
48988;DHT22;34799;51.440;-2.534;2022-12-01T17:28:20;5.80;99.90
48988;DHT22;34799;51.440;-2.534;2022-12-01T17:30:47;5.60;99.90
48988;DHT22;34799;51.440;-2.534;2022-12-01T17:33:14;5.60;99.90
48988;DHT22;34799;51.440;-2.534;2022-12-01T17:35:42;5.50;99.90
48988;DHT22;34799;51.440;-2.534;2022-12-01T17:38:10;5.50;99.90
48988;DHT22;34799;51.440;-2.534;2022-12-01T17:40:37;5.50;99.90
48988;DHT22;34799;51.440;-2.534;2022-12-01T17:43:06;5.50;99.90
48988;DHT22;34799;51.440;-2.534;2022-12-01T17:45:35;5.60;99.90
48988;DHT22;34799;51.440;-2.534;2022-12-01T17:48:07;5.60;99.90
48988;DHT22;34799;51.440;-2.534;2022-12-01T17:50:37;5.60;99.90
48988;DHT22;34799;51.440;-2.534;2022-12-01T17:53:03;9.00;99.90
48988;DHT22;34799;51.440;-2.534;2022-12-01T17:55:30;5.60;99.90
48988;DHT22;34799;51.440;-2.534;2022-12-01T17:57:57;5.60;99.90
48988;DHT22;34799;51.440;-2.534;2022-12-01T18:00:24;5.60;99.90
48988;DHT22;34799;51.440;-2.534;2022-12-01T18:02:53;5.60;99.90
48988;DHT22;34799;51.440;-2.534;2022-12-01T18:05:20;5.50;99.90
48988;DHT22;34799;51.440;-2.534;2022-12-01T18:07:47;5.50;99.90
48988;DHT22;34799;51.440;-2.534;2022-12-01T18:10:14;5.40;99.90
48988;DHT22;34799;51.440;-2.534;2022-12-01T18:12:41;5.50;99.90
48988;DHT22;34799;51.440;-2.534;2022-12-01T18:15:08;5.40;99.90